ENRA/MQN METAR and TAF weather

Enter ICAO airport designator
Station Type Date Time Source
ENRA METAR 2020/09/18 20:50 UTC NOAA

ENRA 182050Z 25009KT 210V280 9999 -SHRA BKN029 07/05 Q1016


Station Type Date Time Source
ENRA Decoded METAR 2020/09/18 20:50 UTC NOAA

Mo I Rana / Rossvoll, Norway (ENRA) 66-22N 014-18E 70M
Sep 18, 2020 - 04:50 PM EDT / 2020.09.18 2050 UTC
Wind: from the WSW (250 degrees) at 10 MPH (9 KT) (direction variable):0
Visibility: greater than 7 mile(s):0
Sky conditions: mostly cloudy
Weather: light rain showers
Temperature: 44 F (7 C)
Dew Point: 41 F (5 C)
Relative Humidity: 87%
Pressure (altimeter): 30.00 in. Hg (1016 hPa)
ob: ENRA 182050Z 25009KT 210V280 9999 -SHRA BKN029 07/05 Q1016
cycle: 21

Station Type Date Time Source
ENRA TAF UTC NOAA

Error!

Example: see airport list